Time;durP1;ratioP1;P1;durP2;ratioP2;P2;SDS_P1;SDS_P2;PMS_P1;PMS_P2;Temp;Humidity;BMP_temperature;BMP_pressure;BME280_temperature;BME280_humidity;BME280_pressure;Samples;Min_cycle;Max_cycle;Signal;HPM_P1;HPM_P2
2021/12/12 00:01:42;;;;;;;97.00;52.10;;;;;;;-0.41;80.93;96934.97;1755514;80;21036;-80
2021/12/12 00:04:15;;;;;;;95.42;51.25;;;;;;;-0.44;81.44;96937.73;1781556;80;21035;-80
2021/12/12 00:06:49;;;;;;;97.67;51.98;;;;;;;-0.49;80.91;96941.87;1760616;80;20984;-80
2021/12/12 00:09:20;;;;;;;90.67;50.40;;;;;;;-0.49;81.29;96952.08;1771803;80;21023;-80
2021/12/12 00:11:46;;;;;;;85.45;47.20;;;;;;;-0.49;81.07;96955.91;1757843;80;21022;-80
2021/12/12 00:14:26;;;;;;;80.55;46.88;;;;;;;-0.47;81.17;96951.98;1775898;80;21115;-80
2021/12/12 00:16:52;;;;;;;85.55;47.48;;;;;;;-0.50;80.62;96947.05;1749386;80;21078;-81
2021/12/12 00:19:18;;;;;;;85.47;45.90;;;;;;;-0.52;80.83;96947.61;1778648;80;21036;-80
2021/12/12 00:21:48;;;;;;;84.75;47.45;;;;;;;-0.53;81.03;96955.72;1740788;80;21111;-80
2021/12/12 00:24:15;;;;;;;85.40;46.70;;;;;;;-0.54;80.79;96955.83;1749675;80;21395;-80
2021/12/12 00:26:41;;;;;;;82.88;45.40;;;;;;;-0.56;81.00;96955.11;1769439;80;20983;-80
2021/12/12 00:29:07;;;;;;;76.37;44.85;;;;;;;-0.57;81.03;96954.30;1772205;80;21038;-80
2021/12/12 00:31:33;;;;;;;77.30;45.43;;;;;;;-0.58;80.83;96950.56;1764554;80;21116;-80
2021/12/12 00:33:59;;;;;;;73.47;43.83;;;;;;;-0.58;81.28;96954.39;1771408;80;21143;-80
2021/12/12 00:36:26;;;;;;;75.72;42.25;;;;;;;-0.59;81.26;96952.30;1776389;80;21438;-80
2021/12/12 00:38:59;;;;;;;75.87;41.65;;;;;;;-0.62;81.06;96953.32;1779901;80;21091;-80
2021/12/12 00:41:33;;;;;;;82.25;44.03;;;;;;;-0.62;81.24;96960.98;1776851;79;20995;-80
2021/12/12 00:44:00;;;;;;;71.50;39.73;;;;;;;-0.64;81.39;96954.34;1760603;80;21129;-80
2021/12/12 00:46:25;;;;;;;69.77;39.58;;;;;;;-0.66;81.42;96956.97;1777808;79;21497;-80
2021/12/12 00:48:51;;;;;;;66.10;38.40;;;;;;;-0.66;81.29;96956.15;1764719;79;21115;-80
2021/12/12 00:51:22;;;;;;;66.37;35.92;;;;;;;-0.66;81.55;96975.29;1727862;80;21012;-80
2021/12/12 00:53:48;;;;;;;64.25;36.75;;;;;;;-0.67;81.60;96977.02;1731929;80;22121;-80
2021/12/12 00:56:13;;;;;;;60.20;36.08;;;;;;;-0.67;81.66;96978.76;1781017;80;21036;-80
2021/12/12 00:58:39;;;;;;;57.67;33.18;;;;;;;-0.64;81.82;96981.14;1769645;80;21044;-80
2021/12/12 01:01:19;;;;;;;48.78;29.65;;;;;;;-0.62;81.84;96980.58;1781338;80;21130;-80
2021/12/12 01:03:49;;;;;;;50.63;27.67;;;;;;;-0.66;81.82;96983.77;1760474;80;21030;-80
2021/12/12 01:06:15;;;;;;;44.50;24.55;;;;;;;-0.67;81.70;96985.95;1773097;80;21367;-80
2021/12/12 01:08:42;;;;;;;44.50;26.48;;;;;;;-0.65;81.75;96989.72;1728395;80;21174;-80
2021/12/12 01:11:19;;;;;;;41.70;25.40;;;;;;;-0.63;81.86;96992.98;1767926;80;21030;-81
2021/12/12 01:13:45;;;;;;;45.85;25.23;;;;;;;-0.64;81.82;96993.44;1773948;80;21315;-81
2021/12/12 01:16:19;;;;;;;39.80;23.35;;;;;;;-0.62;81.95;96993.34;1781272;80;21413;-80
2021/12/12 01:18:51;;;;;;;33.85;20.75;;;;;;;-0.62;81.92;96986.50;1774628;80;20984;-80
2021/12/12 01:21:23;;;;;;;32.33;20.90;;;;;;;-0.62;81.65;96997.17;1770898;80;21016;-80
2021/12/12 01:23:55;;;;;;;29.60;18.95;;;;;;;-0.65;81.80;96989.26;1774030;80;20976;-80
2021/12/12 01:26:21;;;;;;;;;;;;;;;-0.64;81.58;96997.73;1779108;80;20960;-80
2021/12/12 01:28:53;;;;;;;35.00;21.07;;;;;;;-0.63;81.67;96998.09;1765236;80;20119;-80
2021/12/12 01:31:23;;;;;;;37.78;21.60;;;;;;;-0.64;81.53;96991.34;1763669;80;21479;-80
2021/12/12 01:33:46;;;;;;;62.48;23.27;;;;;;;-0.65;81.55;96988.44;1778895;80;21046;-81
2021/12/12 01:36:26;;;;;;;30.40;19.92;;;;;;;-0.66;81.51;96985.50;1757529;80;21112;-80
2021/12/12 01:38:52;;;;;;;30.48;17.50;;;;;;;-0.66;81.55;96996.52;1758415;80;21068;-80
2021/12/12 01:41:33;;;;;;;24.87;15.80;;;;;;;-0.68;81.55;96993.25;1773892;80;21075;-80
2021/12/12 01:44:10;;;;;;;28.90;17.85;;;;;;;-0.70;81.60;96991.26;1772691;80;21086;-80
2021/12/12 01:46:41;;;;;;;36.17;22.55;;;;;;;-0.67;81.76;96994.07;1758108;80;21075;-80
2021/12/12 01:49:15;;;;;;;34.45;21.97;;;;;;;-0.69;81.43;96996.72;1785138;80;21004;-80
2021/12/12 01:51:42;;;;;;;38.92;23.85;;;;;;;-0.69;81.67;96994.17;1774806;80;21043;-80
2021/12/12 01:54:08;;;;;;;45.23;25.48;;;;;;;-0.68;81.61;97000.09;1765641;80;21014;-80
2021/12/12 01:56:42;;;;;;;39.23;23.00;;;;;;;-0.69;81.58;97001.02;1755426;80;21019;-81
2021/12/12 01:59:06;;;;;;;41.00;24.82;;;;;;;-0.70;81.57;97010.86;1759650;80;21031;-80
2021/12/12 02:01:41;;;;;;;42.45;24.75;;;;;;;-0.71;81.71;97019.44;1764582;80;20988;-80
2021/12/12 02:04:12;;;;;;;40.45;25.92;;;;;;;-0.70;81.86;97021.88;1757739;80;21412;-80
2021/12/12 02:06:37;;;;;;;43.60;24.35;;;;;;;-0.71;81.73;97025.81;1771507;80;21110;-80
2021/12/12 02:09:05;;;;;;;45.38;26.20;;;;;;;-0.72;81.84;97019.08;1755603;80;21027;-80
2021/12/12 02:11:33;;;;;;;44.95;27.22;;;;;;;-0.71;81.89;97015.15;1775252;80;21075;-80
2021/12/12 02:14:08;;;;;;;45.92;27.20;;;;;;;-0.69;81.97;97015.86;1754789;80;21158;-80
2021/12/12 02:16:30;;;;;;;43.48;26.05;;;;;;;-0.68;81.88;97019.23;1750526;80;21087;-80
2021/12/12 02:18:59;;;;;;;47.60;26.33;;;;;;;-0.70;82.00;97021.88;1740063;80;21000;-80
2021/12/12 02:21:32;;;;;;;41.90;25.00;;;;;;;-0.70;81.87;97020.61;1735321;80;21004;-80
2021/12/12 02:35:56;;;;;;;47.75;28.45;;;;;;;-0.70;82.04;97032.09;1760807;80;21077;-81
2021/12/12 02:37:34;;;;;;;54.15;32.45;;;;;;;-0.71;81.83;97037.30;1736550;80;21011;-80
2021/12/12 02:40:00;;;;;;;59.90;33.60;;;;;;;-0.71;81.80;97038.12;1779486;80;21004;-80
2021/12/12 02:42:26;;;;;;;51.92;33.15;;;;;;;-0.71;81.80;97030.91;1764286;80;21003;-80
2021/12/12 02:44:57;;;;;;;56.42;32.65;;;;;;;-0.73;81.76;97032.75;1772437;80;21023;-80
2021/12/12 02:47:31;;;;;;;56.40;31.55;;;;;;;-0.74;81.70;97031.93;1753799;80;21044;-80
2021/12/12 02:52:20;;;;;;;51.40;30.68;;;;;;;-0.75;81.82;97030.30;1754025;80;20968;-80
2021/12/12 02:54:46;;;;;;;48.87;30.88;;;;;;;-0.77;81.89;97036.41;1768872;80;21036;-80
2021/12/12 02:57:14;;;;;;;52.08;30.12;;;;;;;-0.77;81.83;97033.41;1779513;80;20992;-80
2021/12/12 02:59:40;;;;;;;51.92;30.82;;;;;;;-0.78;81.83;97038.16;1777760;80;21066;-80
2021/12/12 03:02:14;;;;;;;53.98;30.35;;;;;;;-0.77;81.98;97038.97;1747824;80;21031;-80
2021/12/12 03:04:40;;;;;;;49.58;29.00;;;;;;;-0.76;82.01;97046.53;1748180;80;21055;-81
2021/12/12 03:07:07;;;;;;;47.98;29.18;;;;;;;-0.77;82.04;97043.61;1768609;80;21015;-80
2021/12/12 03:09:39;;;;;;;43.60;27.58;;;;;;;-0.74;82.08;97043.42;1777829;80;21418;-80
2021/12/12 03:12:12;;;;;;;45.77;26.70;;;;;;;-0.73;82.07;97042.50;1773968;80;20981;-80
2021/12/12 03:14:38;;;;;;;40.65;25.23;;;;;;;-0.75;81.93;97032.85;1775199;79;21015;-80
2021/12/12 03:17:08;;;;;;;42.70;25.30;;;;;;;-0.75;82.00;97039.69;1769624;80;20992;-80
2021/12/12 03:19:34;;;;;;;38.02;22.37;;;;;;;-0.77;81.97;97039.78;1768689;80;21079;-80
2021/12/12 03:22:00;;;;;;;32.42;21.17;;;;;;;-0.78;82.07;97043.71;1775026;80;21123;-80
2021/12/12 03:24:27;;;;;;;35.88;21.52;;;;;;;-0.78;82.08;97036.87;1761733;80;21473;-80
2021/12/12 03:26:57;;;;;;;35.70;20.70;;;;;;;-0.79;82.07;97025.03;1769777;80;21134;-81
2021/12/12 03:29:24;;;;;;;34.03;19.87;;;;;;;-0.81;82.05;97028.14;1771487;80;21358;-80
2021/12/12 03:31:57;;;;;;;30.32;19.07;;;;;;;-0.80;82.03;97028.96;1778445;80;21105;-80
2021/12/12 03:34:26;;;;;;;29.18;18.07;;;;;;;-0.82;81.94;97033.31;1780416;80;21072;-80
2021/12/12 03:36:52;;;;;;;28.50;17.35;;;;;;;-0.83;82.05;97029.94;1765143;79;21469;-80
2021/12/12 03:39:30;;;;;;;27.93;18.52;;;;;;;-0.83;82.09;97035.05;1770374;80;21071;-80
2021/12/12 03:41:59;;;;;;;25.92;15.83;;;;;;;-0.83;82.16;97045.25;1778256;80;21019;-80
2021/12/12 03:44:28;;;;;;;24.27;15.85;;;;;;;-0.82;82.09;97044.34;1760152;80;21064;-80
2021/12/12 03:46:58;;;;;;;23.05;14.18;;;;;;;-0.82;82.19;97041.78;1763289;80;21055;-80
2021/12/12 03:49:24;;;;;;;22.95;13.80;;;;;;;-0.82;82.20;97043.06;1764637;80;22254;-80
2021/12/12 03:51:52;;;;;;;19.73;12.15;;;;;;;-0.80;82.17;97051.92;1786198;80;21047;-80
2021/12/12 03:54:18;;;;;;;17.80;12.25;;;;;;;-0.80;82.22;97054.48;1779521;80;21032;-80
2021/12/12 03:56:44;;;;;;;16.45;10.38;;;;;;;-0.80;82.23;97050.64;1769205;80;21000;-80
2021/12/12 03:59:10;;;;;;;15.50;10.82;;;;;;;-0.80;82.25;97045.09;1768748;80;21055;-80
2021/12/12 04:01:40;;;;;;;14.38;9.68;;;;;;;-0.78;82.22;97048.81;1775716;80;21390;-81
2021/12/12 04:04:12;;;;;;;16.05;10.25;;;;;;;-0.79;82.16;97045.91;1769134;80;21480;-80
2021/12/12 04:06:38;;;;;;;14.10;8.85;;;;;;;-0.79;82.14;97049.27;1780786;80;22102;-80
2021/12/12 04:09:05;;;;;;;10.63;7.67;;;;;;;-0.77;82.17;97051.73;1778737;80;21115;-80
2021/12/12 04:11:39;;;;;;;10.28;7.87;;;;;;;-0.78;82.12;97043.25;1775299;80;21019;-80
2021/12/12 04:14:05;;;;;;;9.70;7.03;;;;;;;-0.79;82.11;97034.42;1759366;80;21032;-80
2021/12/12 04:16:34;;;;;;;9.30;7.03;;;;;;;-0.79;82.04;97035.23;1778542;80;20996;-80
2021/12/12 04:19:00;;;;;;;10.50;7.05;;;;;;;-0.78;81.97;97038.16;1753218;80;21147;-80
2021/12/12 04:21:27;;;;;;;8.55;7.25;;;;;;;-0.79;81.98;97040.80;1747983;80;21127;-80
2021/12/12 04:23:54;;;;;;;8.98;6.95;;;;;;;-0.78;82.04;97039.42;1754671;80;21079;-81
2021/12/12 04:26:33;;;;;;;9.18;6.40;;;;;;;-0.78;82.03;97041.98;1739856;80;21080;-80
2021/12/12 04:29:19;;;;;;;8.85;6.25;;;;;;;-0.78;82.01;97043.25;1779117;80;21103;-80
2021/12/12 04:31:50;;;;;;;10.23;6.45;;;;;;;-0.76;82.04;97052.09;1765684;80;21023;-80
2021/12/12 04:34:18;;;;;;;9.65;7.05;;;;;;;-0.75;82.08;97055.81;1763854;80;21079;-80
2021/12/12 04:36:45;;;;;;;9.43;6.90;;;;;;;-0.68;82.19;97063.89;1758921;79;20980;-80
2021/12/12 04:39:20;;;;;;;9.13;6.83;;;;;;;-0.65;82.11;97064.55;1779201;80;21016;-80
2021/12/12 04:41:48;;;;;;;9.43;6.53;;;;;;;-0.63;82.05;97066.55;1769523;80;20996;-80
2021/12/12 04:44:27;;;;;;;12.28;8.90;;;;;;;-0.59;82.03;97077.83;1769361;80;21035;-81
2021/12/12 04:50:27;;;;;;;31.90;20.75;;;;;;;-0.63;81.83;97097.63;1759201;80;21417;-80
2021/12/12 04:53:10;;;;;;;16.52;11.22;;;;;;;-0.65;81.87;97105.84;1758804;80;21071;-80
2021/12/12 04:55:53;;;;;;;11.93;8.60;;;;;;;-0.70;81.69;97109.11;1759001;80;21482;-80
2021/12/12 04:58:25;;;;;;;33.50;21.80;;;;;;;-0.74;81.80;97107.22;1755972;80;21000;-80
2021/12/12 05:00:58;;;;;;;28.73;18.52;;;;;;;-0.75;81.90;97104.76;1779239;79;21012;-80
2021/12/12 05:03:56;;;;;;;21.50;13.75;;;;;;;-0.74;82.01;97107.22;1768367;80;21051;-80
2021/12/12 05:06:31;;;;;;;27.52;17.48;;;;;;;-0.74;82.03;97112.77;1774576;79;21131;-80
2021/12/12 05:09:10;;;;;;;40.50;25.57;;;;;;;-0.77;81.99;97116.34;1759470;80;21007;-80
2021/12/12 05:11:56;;;;;;;38.35;23.73;;;;;;;-0.79;81.99;97118.63;1779659;80;21065;-80
2021/12/12 05:14:27;;;;;;;35.40;23.47;;;;;;;-0.81;82.04;97118.72;1780486;80;21019;-80
2021/12/12 05:17:08;;;;;;;42.05;25.00;;;;;;;-0.79;82.21;97124.55;1781069;80;21052;-81
2021/12/12 05:19:34;;;;;;;50.80;31.87;;;;;;;-0.79;82.21;97139.86;1762536;80;21000;-80
2021/12/12 05:22:08;;;;;;;46.92;29.95;;;;;;;-0.78;82.28;97134.30;1754775;80;21405;-80
2021/12/12 05:24:33;;;;;;;47.88;30.30;;;;;;;-0.80;82.22;97138.22;1785102;80;21383;-80
2021/12/12 05:27:06;;;;;;;48.33;28.92;;;;;;;-0.80;82.32;97136.95;1756657;81;21000;-80
2021/12/12 05:29:58;;;;;;;44.10;28.60;;;;;;;-0.79;82.28;97138.59;1765643;80;21047;-80
2021/12/12 05:32:25;;;;;;;43.85;27.32;;;;;;;-0.79;82.40;97139.86;1777558;80;21078;-80
2021/12/12 05:34:51;;;;;;;43.02;27.20;;;;;;;-0.76;82.52;97135.02;1780189;80;21382;-80
2021/12/12 05:37:19;;;;;;;43.42;25.57;;;;;;;-0.76;82.49;97136.30;1749920;80;21059;-80
2021/12/12 05:39:45;;;;;;;37.83;22.87;;;;;;;-0.76;82.49;97145.23;1773349;80;21441;-79
2021/12/12 05:42:13;;;;;;;38.28;24.10;;;;;;;-0.76;82.49;97142.67;1778056;80;21011;-80
2021/12/12 05:44:40;;;;;;;38.08;23.57;;;;;;;-0.76;82.46;97149.05;1763709;80;21465;-80
2021/12/12 05:47:09;;;;;;;37.35;23.42;;;;;;;-0.77;82.41;97152.06;1766036;80;21011;-80
2021/12/12 05:49:40;;;;;;;35.52;22.60;;;;;;;-0.77;82.41;97152.52;1772063;80;21035;-80
2021/12/12 05:52:09;;;;;;;32.17;21.53;;;;;;;-0.77;82.44;97157.17;1752245;80;21031;-79
2021/12/12 05:54:35;;;;;;;35.05;21.87;;;;;;;-0.76;82.55;97161.36;1756276;80;20999;-80
2021/12/12 05:57:01;;;;;;;32.30;21.52;;;;;;;-0.75;82.53;97160.45;1771458;80;21011;-80
2021/12/12 05:59:27;;;;;;;31.82;20.20;;;;;;;-0.76;82.53;97154.16;1781702;80;21038;-80
2021/12/12 06:01:53;;;;;;;29.63;20.37;;;;;;;-0.72;82.62;97151.78;1756743;80;21034;-80
2021/12/12 06:04:19;;;;;;;36.38;20.77;;;;;;;-0.73;82.55;97157.80;1776634;80;21449;-79
2021/12/12 06:06:45;;;;;;;33.65;19.65;;;;;;;-0.71;82.47;97165.72;1771263;80;21314;-79
2021/12/12 06:09:11;;;;;;;30.12;19.17;;;;;;;-0.72;82.43;97159.44;1782317;80;21073;-80
2021/12/12 06:11:41;;;;;;;28.87;17.05;;;;;;;-0.72;82.40;97162.80;1762399;80;21011;-80
2021/12/12 06:14:07;;;;;;;25.37;17.17;;;;;;;-0.75;82.32;97160.45;1776168;79;21067;-80
2021/12/12 06:16:33;;;;;;;23.92;15.98;;;;;;;-0.72;82.37;97160.25;1781154;80;21517;-80
2021/12/12 06:19:05;;;;;;;23.20;15.35;;;;;;;-0.75;82.33;97159.16;1771213;79;20996;-80
2021/12/12 06:21:31;;;;;;;23.77;16.12;;;;;;;-0.76;82.38;97165.19;1780978;80;21030;-80
2021/12/12 06:23:58;;;;;;;22.25;14.95;;;;;;;-0.75;82.38;97163.00;1782223;80;21048;-80
2021/12/12 06:26:24;;;;;;;19.85;14.38;;;;;;;-0.75;82.35;97166.82;1780692;80;21481;-80
2021/12/12 06:28:49;;;;;;;22.90;14.78;;;;;;;-0.76;82.41;97169.47;1766200;80;21035;-80
2021/12/12 06:31:15;;;;;;;25.85;18.12;;;;;;;-0.75;82.42;97171.11;1781368;80;21063;-80
2021/12/12 06:33:41;;;;;;;24.05;16.02;;;;;;;-0.77;82.39;97170.39;1765213;80;21019;-80
2021/12/12 06:36:09;;;;;;;24.27;16.87;;;;;;;-0.78;82.46;97167.47;1770916;80;21390;-80
2021/12/12 06:38:38;;;;;;;23.95;16.02;;;;;;;-0.79;82.49;97167.92;1760891;80;21066;-80
2021/12/12 06:41:03;;;;;;;23.30;15.55;;;;;;;-0.77;82.57;97165.28;1751484;80;21043;-80
2021/12/12 06:43:29;;;;;;;24.75;16.52;;;;;;;-0.76;82.53;97163.09;1780606;80;21417;-80
2021/12/12 06:45:55;;;;;;;24.23;17.40;;;;;;;-0.79;82.70;97147.52;1776410;79;20996;-80
2021/12/12 06:48:23;;;;;;;25.08;15.93;;;;;;;-0.72;82.58;97158.16;1780693;80;21386;-80
2021/12/12 06:50:52;;;;;;;22.90;15.48;;;;;;;-0.70;82.54;97157.60;1736029;79;21038;-80
2021/12/12 06:53:20;;;;;;;25.40;17.42;;;;;;;-0.69;82.66;97156.69;1777123;80;21034;-80
2021/12/12 06:55:47;;;;;;;29.32;18.67;;;;;;;-0.65;82.70;97155.61;1775704;80;21023;-80
2021/12/12 06:58:13;;;;;;;33.98;19.87;;;;;;;-0.63;82.62;97149.95;1765852;79;21031;-80
2021/12/12 07:00:39;;;;;;;29.75;19.55;;;;;;;-0.63;82.59;97148.22;1776351;79;20956;-80
2021/12/12 07:03:05;;;;;;;28.07;19.07;;;;;;;-0.61;82.62;97153.23;1778666;80;21102;-80
2021/12/12 07:05:31;;;;;;;32.95;20.02;;;;;;;-0.56;82.53;97155.03;1772545;80;21134;-80
2021/12/12 07:07:57;;;;;;;33.28;20.92;;;;;;;-0.53;82.49;97153.56;1761277;80;21434;-80
2021/12/12 07:10:26;;;;;;;32.60;21.62;;;;;;;-0.47;82.71;97152.38;1763660;80;21048;-79
2021/12/12 07:12:55;;;;;;;34.20;21.55;;;;;;;-0.41;82.64;97157.92;1757930;80;21134;-80
2021/12/12 07:15:25;;;;;;;34.80;23.10;;;;;;;-0.38;82.46;97155.63;1779265;80;21375;-80
2021/12/12 07:17:56;;;;;;;40.90;23.83;;;;;;;-0.35;82.37;97156.70;1780011;80;21059;-80
2021/12/12 07:20:22;;;;;;;30.90;19.50;;;;;;;-0.35;82.33;97160.08;1755298;80;21044;-80
2021/12/12 07:22:48;;;;;;;39.85;24.23;;;;;;;-0.32;82.38;97157.82;1773348;80;21040;-79
2021/12/12 07:25:14;;;;;;;34.25;24.70;;;;;;;-0.24;82.55;97158.60;1770482;80;21019;-80
2021/12/12 07:27:40;;;;;;;36.28;23.87;;;;;;;-0.19;82.40;97165.05;1763057;80;21407;-80
2021/12/12 07:30:06;;;;;;;33.23;23.20;;;;;;;-0.15;82.38;97161.41;1764383;80;21020;-80
2021/12/12 07:32:32;;;;;;;36.33;24.60;;;;;;;-0.11;82.29;97167.14;1770115;80;21052;-80
2021/12/12 07:34:58;;;;;;;35.15;23.42;;;;;;;-0.07;82.30;97170.67;1760809;80;21043;-80
2021/12/12 07:37:24;;;;;;;40.03;25.70;;;;;;;-0.02;82.21;97175.48;1766804;80;20977;-80
2021/12/12 07:39:50;;;;;;;40.25;25.43;;;;;;;0.00;82.16;97177.52;1752717;80;21374;-80
2021/12/12 07:42:16;;;;;;;39.08;24.98;;;;;;;0.03;82.23;97182.88;1769654;80;21031;-80
2021/12/12 07:44:43;;;;;;;39.58;26.12;;;;;;;0.09;82.08;97189.69;1776052;80;21170;-80
2021/12/12 07:47:11;;;;;;;39.78;25.68;;;;;;;0.13;82.13;97199.25;1769362;80;20961;-80
2021/12/12 07:49:44;;;;;;;36.20;25.45;;;;;;;0.18;81.99;97195.97;1779780;80;21026;-80
2021/12/12 07:52:15;;;;;;;47.67;30.65;;;;;;;0.22;81.94;97194.84;1769380;80;21023;-80
2021/12/12 07:54:41;;;;;;;59.88;37.25;;;;;;;0.25;81.38;97197.20;1772204;80;21054;-80
2021/12/12 07:57:07;;;;;;;58.68;38.92;;;;;;;0.32;81.13;97192.05;1764095;80;21068;-80
2021/12/12 07:59:35;;;;;;;61.92;38.88;;;;;;;0.35;80.81;97190.59;1768330;80;21043;-80
2021/12/12 08:02:02;;;;;;;62.95;39.20;;;;;;;0.40;80.78;97188.55;1775098;80;22409;-80
2021/12/12 08:04:29;;;;;;;63.63;40.23;;;;;;;0.43;80.39;97183.69;1779331;80;21485;-80
2021/12/12 08:06:55;;;;;;;63.42;40.45;;;;;;;0.46;80.52;97189.88;1780204;80;21056;-80
2021/12/12 08:09:22;;;;;;;78.33;47.03;;;;;;;0.49;80.27;97189.25;1768640;80;21060;-80
2021/12/12 08:11:48;;;;;;;64.95;42.38;;;;;;;0.48;79.80;97192.69;1764858;80;21040;-80
2021/12/12 08:14:21;;;;;;;73.72;47.05;;;;;;;0.48;79.69;97200.36;1764440;80;20965;-80
2021/12/12 08:16:48;;;;;;;67.72;43.83;;;;;;;0.48;79.86;97195.70;1770828;80;20972;-80
2021/12/12 08:19:16;;;;;;;69.80;43.87;;;;;;;0.52;79.71;97197.17;1766208;80;21062;-80
2021/12/12 08:21:42;;;;;;;68.20;42.80;;;;;;;0.55;79.77;97200.34;1767448;80;21076;-80
2021/12/12 08:24:10;;;;;;;67.72;45.40;;;;;;;0.59;79.55;97199.22;1761610;80;21095;-80
2021/12/12 08:26:38;;;;;;;70.00;43.28;;;;;;;0.62;79.29;97203.77;1775425;80;21024;-80
2021/12/12 08:29:08;;;;;;;72.03;46.53;;;;;;;0.60;79.13;97206.42;1779729;80;21019;-80
2021/12/12 08:31:35;;;;;;;66.12;44.35;;;;;;;0.65;79.04;97208.67;1779382;80;21000;-80
2021/12/12 08:34:03;;;;;;;93.47;50.40;;;;;;;0.71;79.16;97205.73;1758579;80;21023;-80
2021/12/12 08:36:30;;;;;;;129.00;68.95;;;;;;;0.74;79.12;97199.95;1779256;80;21031;-80
2021/12/12 08:38:56;;;;;;;75.55;47.30;;;;;;;0.77;78.96;97198.47;1779999;80;21063;-80
2021/12/12 08:41:22;;;;;;;82.62;49.85;;;;;;;0.77;78.78;97195.91;1775023;80;21073;-80
2021/12/12 08:43:48;;;;;;;72.42;47.88;;;;;;;0.77;78.70;97191.25;1764403;80;21024;-80
2021/12/12 08:46:14;;;;;;;371.75;181.15;;;;;;;0.68;78.40;97196.53;1761963;80;21088;-80
2021/12/12 08:48:45;;;;;;;305.70;139.12;;;;;;;0.69;78.57;97196.89;1734825;80;21085;-80
2021/12/12 08:51:18;;;;;;;165.37;83.70;;;;;;;0.70;78.40;97196.42;1753088;80;21558;-80
2021/12/12 08:53:46;;;;;;;165.30;79.32;;;;;;;0.77;78.46;97196.37;1764101;80;21011;-80
2021/12/12 08:56:19;;;;;;;137.40;66.92;;;;;;;0.86;78.29;97202.17;1768744;80;21091;-80
2021/12/12 08:58:39;;;;;;;95.12;54.65;;;;;;;0.93;78.34;97194.43;1729003;81;21049;-80
2021/12/12 09:01:12;;;;;;;79.72;48.58;;;;;;;1.05;78.26;97196.18;1761073;80;21016;-80
2021/12/12 09:03:57;;;;;;;72.95;46.25;;;;;;;1.14;78.25;97192.20;1748154;80;21039;-80
2021/12/12 09:06:29;;;;;;;68.33;44.75;;;;;;;1.25;78.14;97197.84;1749796;80;21114;-80
2021/12/12 09:09:18;;;;;;;84.52;51.85;;;;;;;1.34;77.88;97199.34;1780221;80;21441;-80
2021/12/12 09:12:04;;;;;;;103.72;55.12;;;;;;;1.42;77.72;97198.80;1744342;81;21068;-80
2021/12/12 09:14:54;;;;;;;69.17;44.80;;;;;;;1.47;77.48;97189.89;1765112;80;21374;-80
2021/12/12 09:17:35;;;;;;;74.10;45.95;;;;;;;1.54;77.26;97195.41;1754957;80;21008;-80
2021/12/12 09:20:14;;;;;;;90.65;53.13;;;;;;;1.62;77.29;97198.70;1748209;80;21000;-80
2021/12/12 09:22:49;;;;;;;87.10;54.75;;;;;;;1.68;77.21;97196.55;1752113;80;21079;-80
2021/12/12 09:25:23;;;;;;;77.17;47.93;;;;;;;1.74;77.17;97199.95;1776210;80;21068;-80
2021/12/12 09:27:54;;;;;;;59.75;39.73;;;;;;;1.81;76.75;97193.95;1769331;80;21009;-80
2021/12/12 09:30:25;;;;;;;49.65;33.05;;;;;;;1.68;75.34;97191.42;1779745;80;21066;-80
2021/12/12 09:33:21;;;;;;;68.00;43.83;;;;;;;1.60;76.09;97192.87;1779113;80;21517;-80
2021/12/12 09:36:02;;;;;;;57.30;41.08;;;;;;;1.62;76.26;97183.33;1763974;80;21047;-80
2021/12/12 09:38:39;;;;;;;62.90;40.55;;;;;;;1.49;75.84;97189.33;1779587;80;20980;-80
2021/12/12 09:41:28;;;;;;;59.65;38.92;;;;;;;1.44;75.82;97186.70;1779217;80;21078;-80
2021/12/12 09:44:29;;;;;;;59.53;39.25;;;;;;;1.32;75.40;97197.81;1779217;79;21076;-80
2021/12/12 09:47:31;;;;;;;59.45;39.90;;;;;;;1.08;75.62;97163.16;1774655;80;21063;-80
2021/12/12 09:53:42;;;;;;;;;;;;;;;1.32;75.84;97183.73;1763103;80;21024;-80
2021/12/12 09:56:32;;;;;;;86.32;48.10;;;;;;;1.43;75.67;97182.05;1750030;80;20430;-79
2021/12/12 09:59:10;;;;;;;57.58;38.53;;;;;;;1.50;75.39;97176.05;1760508;79;21019;-80
2021/12/12 10:01:44;;;;;;;136.88;56.83;;;;;;;1.53;75.22;97190.39;1771133;80;21091;-80
2021/12/12 10:04:38;;;;;;;154.07;58.05;;;;;;;1.60;75.33;97187.28;1775627;80;21054;-80
2021/12/12 10:07:43;;;;;;;64.97;39.92;;;;;;;1.62;75.15;97194.39;1766265;80;21033;-80
2021/12/12 10:10:17;;;;;;;62.40;37.48;;;;;;;1.72;74.95;97190.74;1739238;81;21416;-80
2021/12/12 10:12:48;;;;;;;60.65;39.23;;;;;;;1.81;74.50;97191.39;1726838;82;21007;-80
2021/12/12 10:15:19;;;;;;;56.50;36.58;;;;;;;1.87;74.73;97192.70;1743478;82;21530;-80
2021/12/12 10:18:20;;;;;;;53.02;34.63;;;;;;;1.93;74.54;97193.53;1723895;82;21155;-80
2021/12/12 10:21:04;;;;;;;52.62;36.03;;;;;;;2.03;74.12;97191.50;1733451;82;21028;-80
2021/12/12 10:23:58;;;;;;;57.48;38.80;;;;;;;1.97;74.22;97193.70;1723850;82;21086;-80
2021/12/12 10:26:41;;;;;;;52.13;33.63;;;;;;;2.06;74.23;97190.46;1736518;82;21008;-80
2021/12/12 10:29:27;;;;;;;50.88;32.95;;;;;;;2.07;73.68;97189.53;1710436;81;21165;-80
2021/12/12 10:31:57;;;;;;;46.28;31.12;;;;;;;2.15;73.75;97185.97;1762076;80;21015;-80
2021/12/12 10:34:30;;;;;;;46.05;28.77;;;;;;;2.09;73.18;97190.23;1775700;79;21501;-80
2021/12/12 10:37:20;;;;;;;41.25;29.07;;;;;;;2.06;73.08;97182.77;1750587;80;21067;-80
2021/12/12 10:40:03;;;;;;;43.23;29.27;;;;;;;2.05;73.06;97183.70;1779027;80;21004;-80
2021/12/12 10:42:36;;;;;;;46.48;29.70;;;;;;;1.95;72.73;97187.83;1749749;80;21059;-80
2021/12/12 10:45:06;;;;;;;47.00;31.33;;;;;;;1.77;72.68;97187.38;1749752;80;21011;-80
2021/12/12 10:47:54;;;;;;;43.15;28.73;;;;;;;1.71;72.99;97176.30;1753440;80;21079;-80
2021/12/12 10:50:43;;;;;;;45.52;31.90;;;;;;;1.53;72.79;97186.08;1751802;80;20990;-80
2021/12/12 10:53:40;;;;;;;48.85;32.48;;;;;;;1.42;73.27;97190.66;1776208;80;20987;-80
2021/12/12 10:56:40;;;;;;;48.33;34.05;;;;;;;1.38;73.63;97187.95;1770512;80;21461;-80
2021/12/12 10:59:33;;;;;;;50.12;34.25;;;;;;;1.42;73.79;97195.77;1760201;80;21059;-80
2021/12/12 11:02:03;;;;;;;48.02;33.02;;;;;;;1.40;73.86;97192.97;1776848;80;20999;-80
2021/12/12 11:04:50;;;;;;;52.33;34.83;;;;;;;1.41;74.21;97191.58;1751018;80;21036;-80
2021/12/12 11:07:29;;;;;;;52.53;36.00;;;;;;;1.42;74.31;97184.72;1760199;80;21049;-80
2021/12/12 11:10:06;;;;;;;53.45;34.80;;;;;;;1.46;74.04;97190.82;1765922;80;21416;-80
2021/12/12 11:12:46;;;;;;;59.27;37.85;;;;;;;1.44;74.11;97190.08;1757572;80;21402;-79
2021/12/12 11:15:24;;;;;;;53.17;34.88;;;;;;;1.51;74.27;97185.38;1750741;80;21142;-80
2021/12/12 11:18:08;;;;;;;59.23;40.70;;;;;;;1.51;74.00;97181.53;1775980;80;21035;-80
2021/12/12 11:20:41;;;;;;;61.05;40.17;;;;;;;1.50;74.17;97185.84;1775747;79;21027;-80
2021/12/12 11:23:24;;;;;;;60.15;38.67;;;;;;;1.49;74.08;97190.61;1770893;80;21019;-80
2021/12/12 11:25:54;;;;;;;49.60;33.78;;;;;;;1.52;74.23;97187.01;1763544;80;21063;-80
2021/12/12 11:28:35;;;;;;;57.30;38.08;;;;;;;1.47;73.74;97183.49;1768536;80;21545;-80
2021/12/12 11:31:12;;;;;;;52.70;36.20;;;;;;;1.45;73.89;97172.97;1761639;80;21395;-80
2021/12/12 11:33:40;;;;;;;55.00;36.68;;;;;;;1.46;73.97;97168.20;1780376;80;21441;-80
2021/12/12 11:36:08;;;;;;;53.20;33.73;;;;;;;1.46;73.95;97171.61;1777230;80;21382;-80
2021/12/12 11:38:43;;;;;;;47.40;32.95;;;;;;;1.47;73.81;97163.00;1759343;80;21018;-80
2021/12/12 11:41:20;;;;;;;51.33;34.08;;;;;;;1.47;73.65;97160.91;1772164;80;21008;-80
2021/12/12 11:44:07;;;;;;;50.05;32.63;;;;;;;1.40;73.42;97167.36;1780938;80;21405;-80
2021/12/12 11:46:38;;;;;;;51.00;34.25;;;;;;;1.29;73.17;97168.55;1755414;80;21066;-80
2021/12/12 11:49:30;;;;;;;63.75;41.95;;;;;;;1.18;73.51;97175.23;1765309;80;21088;-80
2021/12/12 11:52:07;;;;;;;54.75;35.83;;;;;;;1.16;73.82;97169.41;1754170;80;21103;-80
2021/12/12 11:55:14;;;;;;;53.25;35.00;;;;;;;1.14;73.92;97166.60;1767196;79;21005;-80
2021/12/12 11:58:25;;;;;;;74.12;43.23;;;;;;;1.17;73.98;97163.83;1774095;80;21039;-80
2021/12/12 12:01:09;;;;;;;58.02;37.33;;;;;;;1.16;73.68;97164.28;1762682;80;21031;-80
2021/12/12 12:04:04;;;;;;;113.90;51.15;;;;;;;1.09;73.66;97167.35;1763889;80;21126;-80
2021/12/12 12:07:01;;;;;;;120.70;55.33;;;;;;;1.04;73.82;97166.86;1754717;80;21011;-80